sensor_id;sensor_type;location;lat;lon;timestamp;P1;durP1;ratioP1;P2;durP2;ratioP2
15230;SDS011;32569;51.762;8.564;2023-12-14T00:01:40;2.07;;;1.97;;
15230;SDS011;32569;51.762;8.564;2023-12-14T00:04:07;2.30;;;2.20;;
15230;SDS011;32569;51.762;8.564;2023-12-14T00:06:35;2.80;;;2.60;;
15230;SDS011;32569;51.762;8.564;2023-12-14T00:09:01;2.67;;;2.50;;
15230;SDS011;32569;51.762;8.564;2023-12-14T00:11:28;3.00;;;2.80;;
15230;SDS011;32569;51.762;8.564;2023-12-14T00:13:55;2.83;;;2.63;;
15230;SDS011;32569;51.762;8.564;2023-12-14T00:16:22;3.13;;;2.93;;
15230;SDS011;32569;51.762;8.564;2023-12-14T00:18:49;3.47;;;3.27;;
15230;SDS011;32569;51.762;8.564;2023-12-14T00:21:15;3.73;;;3.43;;
15230;SDS011;32569;51.762;8.564;2023-12-14T00:23:43;4.40;;;4.10;;
15230;SDS011;32569;51.762;8.564;2023-12-14T00:26:10;4.43;;;4.10;;
15230;SDS011;32569;51.762;8.564;2023-12-14T00:28:37;4.27;;;3.97;;
15230;SDS011;32569;51.762;8.564;2023-12-14T00:31:04;5.17;;;4.77;;
15230;SDS011;32569;51.762;8.564;2023-12-14T00:33:31;4.80;;;4.40;;
15230;SDS011;32569;51.762;8.564;2023-12-14T00:35:59;5.03;;;4.63;;
15230;SDS011;32569;51.762;8.564;2023-12-14T00:38:26;4.73;;;4.33;;
15230;SDS011;32569;51.762;8.564;2023-12-14T00:40:54;5.40;;;5.00;;
15230;SDS011;32569;51.762;8.564;2023-12-14T00:43:21;5.13;;;4.73;;
15230;SDS011;32569;51.762;8.564;2023-12-14T00:45:47;6.03;;;5.63;;
15230;SDS011;32569;51.762;8.564;2023-12-14T00:48:14;4.77;;;4.37;;
15230;SDS011;32569;51.762;8.564;2023-12-14T00:50:41;5.53;;;5.13;;
15230;SDS011;32569;51.762;8.564;2023-12-14T00:53:08;5.33;;;4.93;;
15230;SDS011;32569;51.762;8.564;2023-12-14T00:55:34;4.97;;;4.47;;
15230;SDS011;32569;51.762;8.564;2023-12-14T00:58:05;5.17;;;4.77;;
15230;SDS011;32569;51.762;8.564;2023-12-14T01:00:34;5.63;;;5.13;;
15230;SDS011;32569;51.762;8.564;2023-12-14T01:03:00;5.23;;;4.83;;
15230;SDS011;32569;51.762;8.564;2023-12-14T01:05:30;5.37;;;4.97;;
15230;SDS011;32569;51.762;8.564;2023-12-14T01:07:56;4.93;;;4.53;;
15230;SDS011;32569;51.762;8.564;2023-12-14T01:10:23;5.60;;;5.10;;
15230;SDS011;32569;51.762;8.564;2023-12-14T01:12:49;5.30;;;4.80;;
15230;SDS011;32569;51.762;8.564;2023-12-14T01:15:20;5.27;;;4.87;;
15230;SDS011;32569;51.762;8.564;2023-12-14T01:17:47;5.23;;;4.83;;
15230;SDS011;32569;51.762;8.564;2023-12-14T01:20:14;5.07;;;4.67;;
15230;SDS011;32569;51.762;8.564;2023-12-14T01:22:40;5.23;;;4.83;;
15230;SDS011;32569;51.762;8.564;2023-12-14T01:25:07;5.03;;;4.63;;
15230;SDS011;32569;51.762;8.564;2023-12-14T01:27:37;4.40;;;4.10;;
15230;SDS011;32569;51.762;8.564;2023-12-14T01:30:04;5.13;;;4.73;;
15230;SDS011;32569;51.762;8.564;2023-12-14T01:32:32;5.10;;;4.70;;
15230;SDS011;32569;51.762;8.564;2023-12-14T01:34:59;4.87;;;4.43;;
15230;SDS011;32569;51.762;8.564;2023-12-14T01:37:26;4.90;;;4.50;;
15230;SDS011;32569;51.762;8.564;2023-12-14T01:39:52;4.77;;;4.37;;
15230;SDS011;32569;51.762;8.564;2023-12-14T01:42:19;4.10;;;3.80;;
15230;SDS011;32569;51.762;8.564;2023-12-14T01:44:46;4.30;;;4.00;;
15230;SDS011;32569;51.762;8.564;2023-12-14T01:47:12;4.60;;;4.20;;
15230;SDS011;32569;51.762;8.564;2023-12-14T01:49:40;3.73;;;3.50;;
15230;SDS011;32569;51.762;8.564;2023-12-14T01:52:07;4.40;;;4.00;;
15230;SDS011;32569;51.762;8.564;2023-12-14T01:54:34;3.80;;;3.50;;
15230;SDS011;32569;51.762;8.564;2023-12-14T01:57:03;4.13;;;3.83;;
15230;SDS011;32569;51.762;8.564;2023-12-14T01:59:30;4.33;;;3.97;;
15230;SDS011;32569;51.762;8.564;2023-12-14T02:01:57;3.60;;;3.30;;
15230;SDS011;32569;51.762;8.564;2023-12-14T02:04:26;3.60;;;3.40;;
15230;SDS011;32569;51.762;8.564;2023-12-14T02:06:54;3.57;;;3.37;;
15230;SDS011;32569;51.762;8.564;2023-12-14T02:09:23;3.60;;;3.40;;
15230;SDS011;32569;51.762;8.564;2023-12-14T02:11:50;3.87;;;3.57;;
15230;SDS011;32569;51.762;8.564;2023-12-14T02:14:17;3.90;;;3.70;;
15230;SDS011;32569;51.762;8.564;2023-12-14T02:16:43;3.70;;;3.50;;
15230;SDS011;32569;51.762;8.564;2023-12-14T02:19:10;3.37;;;3.17;;
15230;SDS011;32569;51.762;8.564;2023-12-14T02:21:37;3.40;;;3.20;;
15230;SDS011;32569;51.762;8.564;2023-12-14T02:24:05;3.40;;;3.13;;
15230;SDS011;32569;51.762;8.564;2023-12-14T02:26:32;3.00;;;2.80;;
15230;SDS011;32569;51.762;8.564;2023-12-14T02:28:59;3.10;;;2.90;;
15230;SDS011;32569;51.762;8.564;2023-12-14T02:31:34;3.10;;;2.90;;
15230;SDS011;32569;51.762;8.564;2023-12-14T02:34:00;3.10;;;2.90;;
15230;SDS011;32569;51.762;8.564;2023-12-14T02:36:27;3.23;;;3.00;;
15230;SDS011;32569;51.762;8.564;2023-12-14T02:38:53;3.40;;;3.20;;
15230;SDS011;32569;51.762;8.564;2023-12-14T02:41:21;3.50;;;3.30;;
15230;SDS011;32569;51.762;8.564;2023-12-14T02:43:48;3.20;;;3.00;;
15230;SDS011;32569;51.762;8.564;2023-12-14T02:46:15;3.07;;;2.87;;
15230;SDS011;32569;51.762;8.564;2023-12-14T02:48:43;3.20;;;3.00;;
15230;SDS011;32569;51.762;8.564;2023-12-14T02:51:13;3.13;;;2.93;;
15230;SDS011;32569;51.762;8.564;2023-12-14T02:53:40;3.00;;;2.80;;
15230;SDS011;32569;51.762;8.564;2023-12-14T02:56:09;2.63;;;2.50;;
15230;SDS011;32569;51.762;8.564;2023-12-14T02:58:37;2.80;;;2.60;;
15230;SDS011;32569;51.762;8.564;2023-12-14T03:01:04;2.77;;;2.67;;
15230;SDS011;32569;51.762;8.564;2023-12-14T03:03:30;2.57;;;2.37;;
15230;SDS011;32569;51.762;8.564;2023-12-14T03:05:57;2.70;;;2.50;;
15230;SDS011;32569;51.762;8.564;2023-12-14T03:08:24;2.90;;;2.70;;
15230;SDS011;32569;51.762;8.564;2023-12-14T03:10:53;3.00;;;2.80;;
15230;SDS011;32569;51.762;8.564;2023-12-14T03:13:19;2.63;;;2.43;;
15230;SDS011;32569;51.762;8.564;2023-12-14T03:15:47;2.83;;;2.63;;
15230;SDS011;32569;51.762;8.564;2023-12-14T03:18:15;3.27;;;3.07;;
15230;SDS011;32569;51.762;8.564;2023-12-14T03:20:41;2.80;;;2.60;;
15230;SDS011;32569;51.762;8.564;2023-12-14T03:23:08;2.80;;;2.60;;
15230;SDS011;32569;51.762;8.564;2023-12-14T03:25:42;3.07;;;2.87;;
15230;SDS011;32569;51.762;8.564;2023-12-14T03:28:08;2.80;;;2.60;;
15230;SDS011;32569;51.762;8.564;2023-12-14T03:30:35;2.87;;;2.67;;
15230;SDS011;32569;51.762;8.564;2023-12-14T03:33:03;2.60;;;2.50;;
15230;SDS011;32569;51.762;8.564;2023-12-14T03:35:32;2.90;;;2.70;;
15230;SDS011;32569;51.762;8.564;2023-12-14T03:37:58;2.40;;;2.30;;
15230;SDS011;32569;51.762;8.564;2023-12-14T03:40:25;2.50;;;2.40;;
15230;SDS011;32569;51.762;8.564;2023-12-14T03:42:52;2.30;;;2.20;;
15230;SDS011;32569;51.762;8.564;2023-12-14T03:45:21;2.27;;;2.17;;
15230;SDS011;32569;51.762;8.564;2023-12-14T03:47:47;2.47;;;2.37;;
15230;SDS011;32569;51.762;8.564;2023-12-14T03:50:16;2.47;;;2.37;;
15230;SDS011;32569;51.762;8.564;2023-12-14T03:52:42;2.33;;;2.23;;
15230;SDS011;32569;51.762;8.564;2023-12-14T03:55:09;3.00;;;2.80;;
15230;SDS011;32569;51.762;8.564;2023-12-14T03:57:36;2.47;;;2.37;;
15230;SDS011;32569;51.762;8.564;2023-12-14T04:00:03;2.30;;;2.20;;
15230;SDS011;32569;51.762;8.564;2023-12-14T04:02:30;2.40;;;2.30;;
15230;SDS011;32569;51.762;8.564;2023-12-14T04:04:56;2.53;;;2.43;;
15230;SDS011;32569;51.762;8.564;2023-12-14T04:07:24;2.40;;;2.30;;
15230;SDS011;32569;51.762;8.564;2023-12-14T04:09:50;2.37;;;2.27;;
15230;SDS011;32569;51.762;8.564;2023-12-14T04:12:20;2.40;;;2.30;;
15230;SDS011;32569;51.762;8.564;2023-12-14T04:14:46;2.27;;;2.17;;
15230;SDS011;32569;51.762;8.564;2023-12-14T04:17:13;2.87;;;2.67;;
15230;SDS011;32569;51.762;8.564;2023-12-14T04:19:40;2.60;;;2.50;;
15230;SDS011;32569;51.762;8.564;2023-12-14T04:22:07;2.47;;;2.37;;
15230;SDS011;32569;51.762;8.564;2023-12-14T04:24:35;2.80;;;2.60;;
15230;SDS011;32569;51.762;8.564;2023-12-14T04:27:01;2.60;;;2.50;;
15230;SDS011;32569;51.762;8.564;2023-12-14T04:29:28;2.97;;;2.77;;
15230;SDS011;32569;51.762;8.564;2023-12-14T04:31:54;3.00;;;2.80;;
15230;SDS011;32569;51.762;8.564;2023-12-14T04:34:21;2.47;;;2.37;;
15230;SDS011;32569;51.762;8.564;2023-12-14T04:36:48;2.83;;;2.63;;
15230;SDS011;32569;51.762;8.564;2023-12-14T04:39:14;3.03;;;2.90;;
15230;SDS011;32569;51.762;8.564;2023-12-14T04:41:43;3.30;;;3.10;;
15230;SDS011;32569;51.762;8.564;2023-12-14T04:44:10;3.20;;;3.00;;
15230;SDS011;32569;51.762;8.564;2023-12-14T04:46:37;3.30;;;3.10;;
15230;SDS011;32569;51.762;8.564;2023-12-14T04:49:03;3.47;;;3.27;;
15230;SDS011;32569;51.762;8.564;2023-12-14T04:51:30;3.33;;;3.13;;
15230;SDS011;32569;51.762;8.564;2023-12-14T04:53:57;3.33;;;3.13;;
15230;SDS011;32569;51.762;8.564;2023-12-14T04:56:24;3.20;;;3.00;;
15230;SDS011;32569;51.762;8.564;2023-12-14T04:58:52;3.00;;;2.80;;
15230;SDS011;32569;51.762;8.564;2023-12-14T05:01:18;3.03;;;2.83;;
15230;SDS011;32569;51.762;8.564;2023-12-14T05:03:45;3.13;;;2.93;;
15230;SDS011;32569;51.762;8.564;2023-12-14T05:06:12;3.70;;;3.50;;
15230;SDS011;32569;51.762;8.564;2023-12-14T05:08:38;3.67;;;3.47;;
15230;SDS011;32569;51.762;8.564;2023-12-14T05:11:05;3.53;;;3.33;;
15230;SDS011;32569;51.762;8.564;2023-12-14T05:13:32;4.00;;;3.80;;
15230;SDS011;32569;51.762;8.564;2023-12-14T05:15:59;4.07;;;3.77;;
15230;SDS011;32569;51.762;8.564;2023-12-14T05:18:26;3.80;;;3.60;;
15230;SDS011;32569;51.762;8.564;2023-12-14T05:20:53;3.90;;;3.70;;
15230;SDS011;32569;51.762;8.564;2023-12-14T05:23:19;3.93;;;3.63;;
15230;SDS011;32569;51.762;8.564;2023-12-14T05:25:46;3.50;;;3.30;;
15230;SDS011;32569;51.762;8.564;2023-12-14T05:28:13;4.30;;;4.10;;
15230;SDS011;32569;51.762;8.564;2023-12-14T05:30:39;3.50;;;3.30;;
15230;SDS011;32569;51.762;8.564;2023-12-14T05:33:07;3.73;;;3.53;;
15230;SDS011;32569;51.762;8.564;2023-12-14T05:35:34;3.50;;;3.30;;
15230;SDS011;32569;51.762;8.564;2023-12-14T05:38:01;3.60;;;3.40;;
15230;SDS011;32569;51.762;8.564;2023-12-14T05:40:27;3.10;;;2.90;;
15230;SDS011;32569;51.762;8.564;2023-12-14T05:42:54;3.17;;;2.97;;
15230;SDS011;32569;51.762;8.564;2023-12-14T05:45:21;3.57;;;3.27;;
15230;SDS011;32569;51.762;8.564;2023-12-14T05:47:47;2.90;;;2.70;;
15230;SDS011;32569;51.762;8.564;2023-12-14T05:50:15;3.10;;;2.90;;
15230;SDS011;32569;51.762;8.564;2023-12-14T05:52:42;2.83;;;2.73;;
15230;SDS011;32569;51.762;8.564;2023-12-14T05:55:10;2.57;;;2.47;;
15230;SDS011;32569;51.762;8.564;2023-12-14T05:57:37;2.73;;;2.60;;
15230;SDS011;32569;51.762;8.564;2023-12-14T06:00:04;2.50;;;2.40;;
15230;SDS011;32569;51.762;8.564;2023-12-14T06:02:33;2.80;;;2.60;;
15230;SDS011;32569;51.762;8.564;2023-12-14T06:05:01;2.97;;;2.77;;
15230;SDS011;32569;51.762;8.564;2023-12-14T06:07:29;3.07;;;2.87;;
15230;SDS011;32569;51.762;8.564;2023-12-14T06:09:55;3.27;;;3.07;;
15230;SDS011;32569;51.762;8.564;2023-12-14T06:12:26;2.83;;;2.63;;
15230;SDS011;32569;51.762;8.564;2023-12-14T06:14:55;3.20;;;3.00;;
15230;SDS011;32569;51.762;8.564;2023-12-14T06:17:28;3.20;;;3.00;;
15230;SDS011;32569;51.762;8.564;2023-12-14T06:19:57;3.27;;;3.07;;
15230;SDS011;32569;51.762;8.564;2023-12-14T06:22:24;2.60;;;2.50;;
15230;SDS011;32569;51.762;8.564;2023-12-14T06:24:52;3.20;;;3.00;;
15230;SDS011;32569;51.762;8.564;2023-12-14T06:27:19;2.90;;;2.70;;
15230;SDS011;32569;51.762;8.564;2023-12-14T06:29:54;3.70;;;3.50;;
15230;SDS011;32569;51.762;8.564;2023-12-14T06:32:20;3.43;;;3.23;;
15230;SDS011;32569;51.762;8.564;2023-12-14T06:34:47;3.40;;;3.20;;
15230;SDS011;32569;51.762;8.564;2023-12-14T06:37:14;3.50;;;3.30;;
15230;SDS011;32569;51.762;8.564;2023-12-14T06:39:40;4.20;;;3.90;;
15230;SDS011;32569;51.762;8.564;2023-12-14T06:42:09;4.17;;;3.87;;
15230;SDS011;32569;51.762;8.564;2023-12-14T06:44:36;4.07;;;3.77;;
15230;SDS011;32569;51.762;8.564;2023-12-14T06:47:03;4.20;;;3.90;;
15230;SDS011;32569;51.762;8.564;2023-12-14T06:49:31;4.93;;;4.63;;
15230;SDS011;32569;51.762;8.564;2023-12-14T06:51:57;4.70;;;4.40;;
15230;SDS011;32569;51.762;8.564;2023-12-14T06:54:24;4.67;;;4.37;;
15230;SDS011;32569;51.762;8.564;2023-12-14T06:56:51;5.13;;;4.80;;
15230;SDS011;32569;51.762;8.564;2023-12-14T06:59:19;5.13;;;4.73;;
15230;SDS011;32569;51.762;8.564;2023-12-14T07:01:45;5.10;;;4.80;;
15230;SDS011;32569;51.762;8.564;2023-12-14T07:04:12;5.07;;;4.77;;
15230;SDS011;32569;51.762;8.564;2023-12-14T07:06:39;5.10;;;4.80;;
15230;SDS011;32569;51.762;8.564;2023-12-14T07:09:05;4.87;;;4.57;;
15230;SDS011;32569;51.762;8.564;2023-12-14T07:11:32;4.50;;;4.20;;
15230;SDS011;32569;51.762;8.564;2023-12-14T07:13:57;5.43;;;5.03;;
15230;SDS011;32569;51.762;8.564;2023-12-14T07:16:25;5.10;;;4.80;;
15230;SDS011;32569;51.762;8.564;2023-12-14T07:18:52;5.50;;;5.10;;
15230;SDS011;32569;51.762;8.564;2023-12-14T07:21:19;5.13;;;4.73;;
15230;SDS011;32569;51.762;8.564;2023-12-14T07:23:47;4.50;;;4.20;;
15230;SDS011;32569;51.762;8.564;2023-12-14T07:26:13;4.77;;;4.47;;
15230;SDS011;32569;51.762;8.564;2023-12-14T07:28:43;5.40;;;5.00;;
15230;SDS011;32569;51.762;8.564;2023-12-14T07:31:15;5.27;;;4.97;;
15230;SDS011;32569;51.762;8.564;2023-12-14T07:33:45;4.83;;;4.53;;
15230;SDS011;32569;51.762;8.564;2023-12-14T07:36:19;4.90;;;4.57;;
15230;SDS011;32569;51.762;8.564;2023-12-14T07:38:50;4.73;;;4.43;;
15230;SDS011;32569;51.762;8.564;2023-12-14T07:41:17;4.43;;;4.13;;
15230;SDS011;32569;51.762;8.564;2023-12-14T07:43:44;4.37;;;4.07;;
15230;SDS011;32569;51.762;8.564;2023-12-14T07:46:11;4.00;;;3.70;;
15230;SDS011;32569;51.762;8.564;2023-12-14T07:48:37;4.23;;;3.93;;
15230;SDS011;32569;51.762;8.564;2023-12-14T07:51:08;3.87;;;3.67;;
15230;SDS011;32569;51.762;8.564;2023-12-14T07:53:35;3.63;;;3.43;;
15230;SDS011;32569;51.762;8.564;2023-12-14T07:56:02;3.77;;;3.57;;
15230;SDS011;32569;51.762;8.564;2023-12-14T07:58:28;3.57;;;3.37;;
15230;SDS011;32569;51.762;8.564;2023-12-14T08:00:55;3.47;;;3.27;;
15230;SDS011;32569;51.762;8.564;2023-12-14T08:03:25;3.57;;;3.37;;
15230;SDS011;32569;51.762;8.564;2023-12-14T08:05:51;3.83;;;3.57;;
15230;SDS011;32569;51.762;8.564;2023-12-14T08:08:23;3.97;;;3.77;;
15230;SDS011;32569;51.762;8.564;2023-12-14T08:10:49;4.00;;;3.70;;
15230;SDS011;32569;51.762;8.564;2023-12-14T08:13:16;3.70;;;3.50;;
15230;SDS011;32569;51.762;8.564;2023-12-14T08:15:43;3.90;;;3.70;;
15230;SDS011;32569;51.762;8.564;2023-12-14T08:18:10;4.20;;;3.90;;
15230;SDS011;32569;51.762;8.564;2023-12-14T08:20:37;4.10;;;3.87;;
15230;SDS011;32569;51.762;8.564;2023-12-14T08:23:04;3.93;;;3.63;;
15230;SDS011;32569;51.762;8.564;2023-12-14T08:25:32;3.93;;;3.73;;
15230;SDS011;32569;51.762;8.564;2023-12-14T08:27:58;4.33;;;4.00;;
15230;SDS011;32569;51.762;8.564;2023-12-14T08:30:25;4.10;;;3.90;;
15230;SDS011;32569;51.762;8.564;2023-12-14T08:32:51;4.30;;;4.00;;
15230;SDS011;32569;51.762;8.564;2023-12-14T08:35:24;4.07;;;3.87;;
15230;SDS011;32569;51.762;8.564;2023-12-14T08:37:53;4.13;;;3.90;;
15230;SDS011;32569;51.762;8.564;2023-12-14T08:40:25;4.30;;;4.00;;
15230;SDS011;32569;51.762;8.564;2023-12-14T08:42:59;4.10;;;3.90;;
15230;SDS011;32569;51.762;8.564;2023-12-14T08:45:25;4.10;;;3.90;;
15230;SDS011;32569;51.762;8.564;2023-12-14T08:47:52;4.03;;;3.80;;
15230;SDS011;32569;51.762;8.564;2023-12-14T08:50:18;4.27;;;3.97;;
15230;SDS011;32569;51.762;8.564;2023-12-14T08:52:45;3.83;;;3.60;;
15230;SDS011;32569;51.762;8.564;2023-12-14T08:55:18;4.27;;;3.97;;
15230;SDS011;32569;51.762;8.564;2023-12-14T08:57:44;4.30;;;4.00;;
15230;SDS011;32569;51.762;8.564;2023-12-14T09:00:13;4.20;;;4.00;;
15230;SDS011;32569;51.762;8.564;2023-12-14T09:02:41;4.10;;;3.80;;
15230;SDS011;32569;51.762;8.564;2023-12-14T09:05:09;3.90;;;3.63;;
15230;SDS011;32569;51.762;8.564;2023-12-14T09:07:35;4.20;;;3.90;;
15230;SDS011;32569;51.762;8.564;2023-12-14T09:10:02;4.50;;;4.20;;
15230;SDS011;32569;51.762;8.564;2023-12-14T09:12:29;3.97;;;3.77;;
15230;SDS011;32569;51.762;8.564;2023-12-14T09:14:56;4.60;;;4.30;;
15230;SDS011;32569;51.762;8.564;2023-12-14T09:17:24;4.50;;;4.20;;
15230;SDS011;32569;51.762;8.564;2023-12-14T09:19:51;4.07;;;3.77;;
15230;SDS011;32569;51.762;8.564;2023-12-14T09:22:17;4.00;;;3.80;;
15230;SDS011;32569;51.762;8.564;2023-12-14T09:24:47;4.23;;;4.03;;
15230;SDS011;32569;51.762;8.564;2023-12-14T09:27:17;4.10;;;3.90;;
15230;SDS011;32569;51.762;8.564;2023-12-14T09:29:43;4.20;;;3.90;;
15230;SDS011;32569;51.762;8.564;2023-12-14T09:32:10;4.10;;;3.90;;
15230;SDS011;32569;51.762;8.564;2023-12-14T09:34:38;3.90;;;3.70;;
15230;SDS011;32569;51.762;8.564;2023-12-14T09:37:05;4.40;;;4.10;;
15230;SDS011;32569;51.762;8.564;2023-12-14T09:39:32;4.00;;;3.80;;
15230;SDS011;32569;51.762;8.564;2023-12-14T09:42:02;4.00;;;3.80;;
15230;SDS011;32569;51.762;8.564;2023-12-14T09:44:30;4.00;;;3.73;;
15230;SDS011;32569;51.762;8.564;2023-12-14T09:46:57;3.70;;;3.50;;
15230;SDS011;32569;51.762;8.564;2023-12-14T09:52:41;4.60;;;4.30;;
15230;SDS011;32569;51.762;8.564;2023-12-14T09:55:10;4.30;;;4.00;;
15230;SDS011;32569;51.762;8.564;2023-12-14T09:57:36;4.50;;;4.20;;
15230;SDS011;32569;51.762;8.564;2023-12-14T10:00:06;4.10;;;3.90;;
15230;SDS011;32569;51.762;8.564;2023-12-14T10:02:36;4.53;;;4.23;;
15230;SDS011;32569;51.762;8.564;2023-12-14T10:05:03;4.20;;;4.00;;
15230;SDS011;32569;51.762;8.564;2023-12-14T10:07:35;4.33;;;4.03;;
15230;SDS011;32569;51.762;8.564;2023-12-14T10:10:09;4.30;;;4.00;;
15230;SDS011;32569;51.762;8.564;2023-12-14T10:12:41;4.37;;;4.10;;
15230;SDS011;32569;51.762;8.564;2023-12-14T10:15:17;4.60;;;4.30;;
15230;SDS011;32569;51.762;8.564;2023-12-14T10:17:43;4.67;;;4.37;;
15230;SDS011;32569;51.762;8.564;2023-12-14T10:20:18;4.20;;;4.00;;
15230;SDS011;32569;51.762;8.564;2023-12-14T10:22:48;4.70;;;4.40;;
15230;SDS011;32569;51.762;8.564;2023-12-14T10:25:20;4.10;;;3.80;;
15230;SDS011;32569;51.762;8.564;2023-12-14T10:27:47;4.43;;;4.13;;
15230;SDS011;32569;51.762;8.564;2023-12-14T10:30:14;4.00;;;3.77;;
15230;SDS011;32569;51.762;8.564;2023-12-14T10:32:40;4.27;;;4.07;;
15230;SDS011;32569;51.762;8.564;2023-12-14T10:35:07;4.73;;;4.43;;
15230;SDS011;32569;51.762;8.564;2023-12-14T10:37:35;4.37;;;4.07;;
15230;SDS011;32569;51.762;8.564;2023-12-14T10:40:08;4.70;;;4.40;;
15230;SDS011;32569;51.762;8.564;2023-12-14T10:42:36;4.30;;;4.10;;
15230;SDS011;32569;51.762;8.564;2023-12-14T10:45:05;4.30;;;4.10;;
15230;SDS011;32569;51.762;8.564;2023-12-14T10:47:33;4.63;;;4.33;;
15230;SDS011;32569;51.762;8.564;2023-12-14T10:50:00;4.23;;;3.93;;
15230;SDS011;32569;51.762;8.564;2023-12-14T10:52:29;4.80;;;4.50;;
15230;SDS011;32569;51.762;8.564;2023-12-14T10:55:00;4.57;;;4.27;;
15230;SDS011;32569;51.762;8.564;2023-12-14T10:57:32;4.30;;;4.00;;
15230;SDS011;32569;51.762;8.564;2023-12-14T11:00:00;4.60;;;4.30;;
15230;SDS011;32569;51.762;8.564;2023-12-14T11:02:29;4.83;;;4.53;;
15230;SDS011;32569;51.762;8.564;2023-12-14T11:04:57;4.70;;;4.40;;
15230;SDS011;32569;51.762;8.564;2023-12-14T11:10:11;4.40;;;4.10;;
15230;SDS011;32569;51.762;8.564;2023-12-14T11:12:39;4.00;;;3.80;;
15230;SDS011;32569;51.762;8.564;2023-12-14T11:15:17;4.70;;;4.40;;
15230;SDS011;32569;51.762;8.564;2023-12-14T11:20:54;4.43;;;4.13;;
15230;SDS011;32569;51.762;8.564;2023-12-14T11:23:29;5.07;;;4.77;;
15230;SDS011;32569;51.762;8.564;2023-12-14T11:25:58;4.60;;;4.30;;
15230;SDS011;32569;51.762;8.564;2023-12-14T11:28:31;4.37;;;4.10;;
15230;SDS011;32569;51.762;8.564;2023-12-14T11:31:02;4.47;;;4.17;;
15230;SDS011;32569;51.762;8.564;2023-12-14T11:33:34;4.63;;;4.33;;
15230;SDS011;32569;51.762;8.564;2023-12-14T11:36:04;4.43;;;4.13;;
15230;SDS011;32569;51.762;8.564;2023-12-14T11:38:31;4.40;;;4.10;;
15230;SDS011;32569;51.762;8.564;2023-12-14T11:40:58;4.33;;;4.03;;
15230;SDS011;32569;51.762;8.564;2023-12-14T11:43:29;4.47;;;4.17;;
15230;SDS011;32569;51.762;8.564;2023-12-14T11:46:07;4.50;;;4.17;;
15230;SDS011;32569;51.762;8.564;2023-12-14T11:48:34;4.80;;;4.50;;
15230;SDS011;32569;51.762;8.564;2023-12-14T11:51:04;4.80;;;4.50;;
15230;SDS011;32569;51.762;8.564;2023-12-14T11:53:31;5.20;;;4.77;;
15230;SDS011;32569;51.762;8.564;2023-12-14T11:55:59;4.83;;;4.53;;
15230;SDS011;32569;51.762;8.564;2023-12-14T11:58:27;4.80;;;4.50;;
15230;SDS011;32569;51.762;8.564;2023-12-14T12:01:12;4.70;;;4.40;;
15230;SDS011;32569;51.762;8.564;2023-12-14T12:03:39;5.13;;;4.60;;
15230;SDS011;32569;51.762;8.564;2023-12-14T12:06:06;4.90;;;4.50;;
15230;SDS011;32569;51.762;8.564;2023-12-14T12:08:40;5.20;;;4.80;;
15230;SDS011;32569;51.762;8.564;2023-12-14T12:11:09;4.87;;;4.50;;
15230;SDS011;32569;51.762;8.564;2023-12-14T12:13:37;5.00;;;4.67;;
15230;SDS011;32569;51.762;8.564;2023-12-14T12:16:04;4.70;;;4.30;;
15230;SDS011;32569;51.762;8.564;2023-12-14T12:18:31;4.67;;;4.37;;
15230;SDS011;32569;51.762;8.564;2023-12-14T12:20:57;4.53;;;4.23;;
15230;SDS011;32569;51.762;8.564;2023-12-14T12:23:34;4.97;;;4.60;;
15230;SDS011;32569;51.762;8.564;2023-12-14T12:26:01;4.57;;;4.27;;
15230;SDS011;32569;51.762;8.564;2023-12-14T12:28:31;5.03;;;4.63;;
15230;SDS011;32569;51.762;8.564;2023-12-14T12:30:59;4.80;;;4.40;;
15230;SDS011;32569;51.762;8.564;2023-12-14T12:33:26;4.27;;;3.97;;
15230;SDS011;32569;51.762;8.564;2023-12-14T12:35:52;4.07;;;3.77;;
15230;SDS011;32569;51.762;8.564;2023-12-14T12:38:19;4.10;;;3.80;;
15230;SDS011;32569;51.762;8.564;2023-12-14T12:40:46;4.00;;;3.70;;
15230;SDS011;32569;51.762;8.564;2023-12-14T12:43:13;4.23;;;3.93;;
15230;SDS011;32569;51.762;8.564;2023-12-14T12:45:40;4.70;;;4.40;;
15230;SDS011;32569;51.762;8.564;2023-12-14T12:48:08;4.07;;;3.87;;
15230;SDS011;32569;51.762;8.564;2023-12-14T12:50:35;4.73;;;4.40;;
15230;SDS011;32569;51.762;8.564;2023-12-14T12:53:05;4.90;;;4.50;;
15230;SDS011;32569;51.762;8.564;2023-12-14T12:55:34;4.53;;;4.13;;
15230;SDS011;32569;51.762;8.564;2023-12-14T12:58:03;4.70;;;4.23;;
15230;SDS011;32569;51.762;8.564;2023-12-14T13:00:31;4.93;;;4.57;;
15230;SDS011;32569;51.762;8.564;2023-12-14T13:03:00;4.50;;;4.17;;
15230;SDS011;32569;51.762;8.564;2023-12-14T13:05:28;4.83;;;4.50;;
15230;SDS011;32569;51.762;8.564;2023-12-14T13:07:55;4.30;;;4.00;;
15230;SDS011;32569;51.762;8.564;2023-12-14T13:10:30;4.20;;;3.90;;
15230;SDS011;32569;51.762;8.564;2023-12-14T13:12:57;4.20;;;3.90;;
15230;SDS011;32569;51.762;8.564;2023-12-14T13:15:24;4.80;;;4.40;;
15230;SDS011;32569;51.762;8.564;2023-12-14T13:17:52;4.73;;;4.33;;
15230;SDS011;32569;51.762;8.564;2023-12-14T13:20:18;3.90;;;3.60;;
15230;SDS011;32569;51.762;8.564;2023-12-14T13:22:46;4.33;;;4.03;;
15230;SDS011;32569;51.762;8.564;2023-12-14T13:25:15;3.87;;;3.67;;
15230;SDS011;32569;51.762;8.564;2023-12-14T13:27:45;3.77;;;3.57;;
15230;SDS011;32569;51.762;8.564;2023-12-14T13:30:11;4.00;;;3.70;;
15230;SDS011;32569;51.762;8.564;2023-12-14T13:32:41;4.30;;;4.00;;
15230;SDS011;32569;51.762;8.564;2023-12-14T13:35:11;3.73;;;3.50;;
15230;SDS011;32569;51.762;8.564;2023-12-14T13:37:38;3.87;;;3.60;;
15230;SDS011;32569;51.762;8.564;2023-12-14T13:40:07;3.70;;;3.50;;
15230;SDS011;32569;51.762;8.564;2023-12-14T13:42:35;3.83;;;3.63;;
15230;SDS011;32569;51.762;8.564;2023-12-14T13:45:01;3.60;;;3.40;;
15230;SDS011;32569;51.762;8.564;2023-12-14T13:47:28;3.90;;;3.60;;
15230;SDS011;32569;51.762;8.564;2023-12-14T13:49:55;3.80;;;3.60;;
15230;SDS011;32569;51.762;8.564;2023-12-14T13:52:21;3.87;;;3.67;;
15230;SDS011;32569;51.762;8.564;2023-12-14T13:54:49;3.60;;;3.40;;
15230;SDS011;32569;51.762;8.564;2023-12-14T13:57:20;3.60;;;3.40;;
15230;SDS011;32569;51.762;8.564;2023-12-14T13:59:48;3.40;;;3.20;;
15230;SDS011;32569;51.762;8.564;2023-12-14T14:02:17;3.87;;;3.60;;
15230;SDS011;32569;51.762;8.564;2023-12-14T14:04:44;4.03;;;3.80;;
15230;SDS011;32569;51.762;8.564;2023-12-14T14:07:11;5.07;;;3.70;;
15230;SDS011;32569;51.762;8.564;2023-12-14T14:09:37;3.23;;;3.03;;
15230;SDS011;32569;51.762;8.564;2023-12-14T14:12:07;4.20;;;3.80;;
15230;SDS011;32569;51.762;8.564;2023-12-14T14:14:40;3.67;;;3.47;;
15230;SDS011;32569;51.762;8.564;2023-12-14T14:17:06;3.53;;;3.23;;
15230;SDS011;32569;51.762;8.564;2023-12-14T14:19:33;4.20;;;3.90;;
15230;SDS011;32569;51.762;8.564;2023-12-14T14:21:59;5.83;;;3.93;;
15230;SDS011;32569;51.762;8.564;2023-12-14T14:24:32;3.60;;;3.40;;
15230;SDS011;32569;51.762;8.564;2023-12-14T14:26:59;3.80;;;3.50;;
15230;SDS011;32569;51.762;8.564;2023-12-14T14:29:26;4.00;;;3.70;;
15230;SDS011;32569;51.762;8.564;2023-12-14T14:31:54;3.73;;;3.53;;
15230;SDS011;32569;51.762;8.564;2023-12-14T14:34:23;3.63;;;3.33;;
15230;SDS011;32569;51.762;8.564;2023-12-14T14:36:50;3.83;;;3.63;;
15230;SDS011;32569;51.762;8.564;2023-12-14T14:39:20;3.57;;;3.37;;
15230;SDS011;32569;51.762;8.564;2023-12-14T14:41:47;3.70;;;3.50;;
15230;SDS011;32569;51.762;8.564;2023-12-14T14:44:19;3.80;;;3.60;;
15230;SDS011;32569;51.762;8.564;2023-12-14T14:46:46;4.37;;;4.07;;
15230;SDS011;32569;51.762;8.564;2023-12-14T14:49:14;4.13;;;3.90;;
15230;SDS011;32569;51.762;8.564;2023-12-14T14:51:41;3.50;;;3.30;;
15230;SDS011;32569;51.762;8.564;2023-12-14T14:54:07;4.50;;;3.53;;
15230;SDS011;32569;51.762;8.564;2023-12-14T14:56:34;4.23;;;4.00;;
15230;SDS011;32569;51.762;8.564;2023-12-14T14:59:04;4.03;;;3.80;;
15230;SDS011;32569;51.762;8.564;2023-12-14T15:01:32;4.00;;;3.80;;